Search for airport 
image banner adimage banner adimage banner ad
image banner ad

O03 - Morgantown

Located in Morgantown, United States

ICAO - O03, IATA -

Data provided by Airmate  

General information

Coordinates: N40°9'25" W75°52'14"
Elevation is 600 feet MSL.
Magnetic variation is -11° East
View others Airports in Pennsylvania

Operational data

Special qualification required
Current time UTC:
Current local time:
Weather at : KMQS - Chester County G O Carlson ( 20 km )
METAR: KMQS 132035Z AUTO 00000KT 10SM BKN026 23/18 A2992 RMK AO2
View NOTAMs / SUP AIP / TFR affecting this airport [VIEW]
Communications frequencies: [VIEW]

Runways:

RWY identifierQFULength (ft)Width (ft)SurfaceLDA (ft)
102500100GRASS
282500100GRASS

Airport contact information

Address: Morgantown United States

Other aviation service providers

Flight schools

Black Diamond Soaring, Inc

Black Diamond Soaring, Inc
soaring@dejazzd.com+1(610)913-7627

Satellite view of O03